Time;durP1;ratioP1;P1;durP2;ratioP2;P2;SDS_P1;SDS_P2;PMS_P1;PMS_P2;Temp;Humidity;BMP_temperature;BMP_pressure;BME280_temperature;BME280_humidity;BME280_pressure;Samples;Min_cycle;Max_cycle;Signal;HPM_P1;HPM_P2
2023/11/22 00:00:44;;;;;;;16.05;14.43;;;256.20;2252.80;;;;;;5066756;28;20024;-63
2023/11/22 00:03:10;;;;;;;23.80;18.33;;;256.20;2252.80;;;;;;5060098;28;20020;-62
2023/11/22 00:05:36;;;;;;;24.00;17.60;;;256.20;2252.80;;;;;;5059490;28;20031;-62
2023/11/22 00:08:02;;;;;;;26.50;18.73;;;256.20;2252.80;;;;;;5058606;28;20471;-63
2023/11/22 00:10:27;;;;;;;26.02;19.65;;;256.30;2252.80;;;;;;5057540;28;20037;-62
2023/11/22 00:12:53;;;;;;;17.95;16.05;;;256.30;2252.80;;;;;;5059877;28;20073;-63
2023/11/22 00:15:19;;;;;;;12.40;10.18;;;256.20;2252.80;;;;;;5057950;28;20384;-61
2023/11/22 00:17:45;;;;;;;14.75;12.13;;;256.10;2252.80;;;;;;5058778;28;20252;-62
2023/11/22 00:20:11;;;;;;;10.52;8.13;;;256.20;2252.80;;;;;;5059667;28;20645;-64
2023/11/22 00:22:37;;;;;;;10.60;7.88;;;256.20;2252.80;;;;;;5057503;28;20372;-61
2023/11/22 00:25:04;;;;;;;15.93;10.85;;;256.30;2252.80;;;;;;5061941;28;20021;-64
2023/11/22 00:27:31;;;;;;;14.02;12.63;;;256.40;2252.80;;;;;;5063115;28;20114;-61
2023/11/22 00:29:57;;;;;;;11.50;9.77;;;256.30;2252.80;;;;;;5062971;28;20028;-62
2023/11/22 00:32:23;;;;;;;13.40;9.80;;;256.30;2252.80;;;;;;5062359;28;20017;-64
2023/11/22 00:34:49;;;;;;;10.27;9.00;;;256.20;2252.80;;;;;;5062939;28;20021;-63
2023/11/22 00:37:15;;;;;;;17.15;11.77;;;256.10;2252.80;;;;;;5061364;28;20036;-62
2023/11/22 00:39:41;;;;;;;13.77;9.77;;;256.00;2252.80;;;;;;5062461;28;20029;-61
2023/11/22 00:42:07;;;;;;;13.70;9.45;;;256.10;2252.80;;;;;;5062867;28;20033;-63
2023/11/22 00:44:33;;;;;;;10.93;9.13;;;256.10;2252.80;;;;;;5059723;28;20071;-60
2023/11/22 00:46:59;;;;;;;28.52;23.35;;;256.10;2252.80;;;;;;5060791;28;20029;-61
2023/11/22 00:49:25;;;;;;;41.25;27.77;;;256.20;2252.80;;;;;;5061795;28;20089;-62
2023/11/22 00:51:50;;;;;;;14.57;12.50;;;256.20;2252.80;;;;;;5061302;28;20065;-63
2023/11/22 00:54:18;;;;;;;11.80;10.23;;;256.10;2252.80;;;;;;5062048;28;20024;-60
2023/11/22 00:56:45;;;;;;;12.63;10.63;;;256.10;2252.80;;;;;;5062833;28;20029;-61
2023/11/22 00:59:10;;;;;;;32.80;23.48;;;256.10;2252.80;;;;;;5060722;28;20017;-63
2023/11/22 01:01:36;;;;;;;14.65;9.98;;;256.10;2252.80;;;;;;5060782;28;20040;-63
2023/11/22 01:04:02;;;;;;;9.57;7.75;;;256.00;2252.80;;;;;;5060513;28;20021;-63
2023/11/22 01:06:29;;;;;;;13.27;12.15;;;256.10;2252.80;;;;;;5060093;28;20032;-63
2023/11/22 01:08:54;;;;;;;9.50;8.63;;;256.10;2252.80;;;;;;5062161;28;20023;-62
2023/11/22 01:11:21;;;;;;;8.38;7.43;;;256.00;2252.80;;;;;;5061027;28;20056;-63
2023/11/22 01:13:46;;;;;;;8.15;7.30;;;231.30;2252.80;;;;;;5060898;28;20037;-61
2023/11/22 01:16:15;;;;;;;8.10;6.40;;;231.30;2252.80;;;;;;5062707;28;20443;-62
2023/11/22 01:18:41;;;;;;;8.85;6.95;;;231.30;2252.80;;;;;;5059386;28;20041;-63
2023/11/22 01:21:08;;;;;;;7.63;6.32;;;256.00;2252.80;;;;;;5062106;28;20032;-62
2023/11/22 01:23:33;;;;;;;7.97;6.25;;;231.30;2252.80;;;;;;5061349;28;20052;-63
2023/11/22 01:25:59;;;;;;;9.98;6.55;;;231.30;2252.80;;;;;;5059189;28;20065;-63
2023/11/22 01:28:27;;;;;;;9.20;6.63;;;231.20;2252.80;;;;;;5060238;28;20048;-62
2023/11/22 01:30:54;;;;;;;7.70;6.93;;;231.30;2252.80;;;;;;5051750;28;20041;-61
2023/11/22 01:33:20;;;;;;;8.45;6.70;;;231.20;2252.80;;;;;;5033650;28;20383;-62
2023/11/22 01:35:46;;;;;;;8.98;6.47;;;231.30;2252.80;;;;;;5051419;28;20663;-62
2023/11/22 01:38:12;;;;;;;8.07;6.28;;;231.20;2252.80;;;;;;5051674;28;20036;-61
2023/11/22 01:40:46;;;;;;;7.65;6.20;;;231.20;2252.80;;;;;;5051185;28;20021;-61
2023/11/22 01:43:18;;;;;;;6.55;4.82;;;231.30;2252.80;;;;;;5051635;28;20028;-62
2023/11/22 01:45:44;;;;;;;7.80;6.65;;;231.30;2252.80;;;;;;5051394;28;20039;-62
2023/11/22 01:48:11;;;;;;;5.75;5.03;;;231.30;2252.80;;;;;;5051238;28;20013;-63
2023/11/22 01:50:40;;;;;;;9.10;8.30;;;231.30;2252.80;;;;;;5051097;28;20594;-62
2023/11/22 01:53:07;;;;;;;11.40;10.25;;;231.30;2252.80;;;;;;5050990;28;20036;-62
2023/11/22 01:55:34;;;;;;;9.15;6.70;;;231.20;2252.80;;;;;;5051081;28;20029;-62
2023/11/22 01:58:01;;;;;;;7.15;4.97;;;231.20;2252.80;;;;;;5050917;28;20025;-63
2023/11/22 02:00:35;;;;;;;10.10;6.07;;;231.30;2252.80;;;;;;5048480;28;20048;-63
2023/11/22 02:03:01;;;;;;;7.18;5.88;;;231.30;2252.80;;;;;;5049544;28;20487;-62
2023/11/22 02:05:28;;;;;;;9.45;6.65;;;231.30;2252.80;;;;;;5049343;28;20060;-61
2023/11/22 02:07:55;;;;;;;6.80;5.15;;;231.30;2252.80;;;;;;5049511;28;20083;-63
2023/11/22 02:10:20;;;;;;;8.40;5.10;;;231.20;2252.80;;;;;;5048966;28;20057;-62
2023/11/22 02:12:46;;;;;;;20.50;15.00;;;231.20;2252.80;;;;;;5048827;28;20387;-63
2023/11/22 02:15:12;;;;;;;6.63;5.07;;;231.30;2252.80;;;;;;5049249;28;20025;-62
2023/11/22 02:17:39;;;;;;;6.65;4.90;;;231.20;2252.80;;;;;;5049166;28;20077;-63
2023/11/22 02:20:06;;;;;;;9.98;8.88;;;231.10;2252.80;;;;;;5049068;28;20029;-60
2023/11/22 02:22:32;;;;;;;6.32;5.40;;;231.10;2252.80;;;;;;5031533;28;20029;-62
2023/11/22 02:24:58;;;;;;;6.20;5.25;;;231.20;2252.80;;;;;;5048166;28;20690;-61
2023/11/22 02:27:23;;;;;;;7.75;6.28;;;231.20;2252.80;;;;;;5049320;28;20032;-61
2023/11/22 02:29:50;;;;;;;7.03;5.20;;;231.20;2252.80;;;;;;5048683;28;20068;-61
2023/11/22 02:32:15;;;;;;;6.25;5.38;;;231.20;2252.80;;;;;;5048986;28;20044;-62
2023/11/22 02:34:41;;;;;;;7.90;5.85;;;231.20;2252.80;;;;;;5048884;28;20040;-63
2023/11/22 02:37:08;;;;;;;7.00;5.20;;;231.20;2252.80;;;;;;5048892;28;20029;-63
2023/11/22 02:40:01;;;;;;;7.47;6.15;;;231.20;2252.80;;;;;;5048283;28;20025;-62
2023/11/22 02:42:27;;;;;;;30.65;27.90;;;231.20;2252.80;;;;;;5048364;28;20037;-62
2023/11/22 02:44:53;;;;;;;11.30;7.97;;;231.20;2252.80;;;;;;5030674;28;20037;-61
2023/11/22 02:47:18;;;;;;;6.80;4.68;;;231.20;2252.80;;;;;;5048266;28;20033;-64
2023/11/22 02:49:44;;;;;;;5.32;3.60;;;231.30;2252.80;;;;;;5048629;28;20033;-62
2023/11/22 02:52:11;;;;;;;5.47;4.72;;;231.30;2252.80;;;;;;5048059;28;20032;-63
2023/11/22 02:54:37;;;;;;;4.47;3.70;;;231.20;2252.80;;;;;;5048272;28;20479;-62
2023/11/22 02:57:03;;;;;;;5.07;3.53;;;231.20;2252.80;;;;;;5048553;28;20035;-63
2023/11/22 02:59:29;;;;;;;5.93;4.38;;;231.20;2252.80;;;;;;5048277;28;20086;-64
2023/11/22 03:01:54;;;;;;;6.47;4.28;;;231.20;2252.80;;;;;;5048497;28;20032;-61
2023/11/22 03:04:20;;;;;;;23.52;21.35;;;231.30;2252.80;;;;;;5047705;28;20394;-62
2023/11/22 03:06:46;;;;;;;5.25;4.20;;;231.30;2252.80;;;;;;5029764;28;20039;-63
2023/11/22 03:09:13;;;;;;;5.63;4.65;;;231.30;2252.80;;;;;;5048168;28;20035;-63
2023/11/22 03:11:39;;;;;;;6.25;4.13;;;231.30;2252.80;;;;;;5047220;28;20052;-63
2023/11/22 03:14:04;;;;;;;5.15;3.90;;;231.30;2252.80;;;;;;5047557;28;20029;-63
2023/11/22 03:16:30;;;;;;;5.07;4.07;;;231.30;2252.80;;;;;;5047346;28;20478;-63
2023/11/22 03:18:58;;;;;;;5.32;4.30;;;231.20;2252.80;;;;;;5046804;28;20025;-62
2023/11/22 03:21:26;;;;;;;5.78;4.57;;;231.20;2252.80;;;;;;5047649;28;20104;-62
2023/11/22 03:23:52;;;;;;;5.50;4.40;;;231.10;2252.80;;;;;;5047267;28;20116;-62
2023/11/22 03:26:19;;;;;;;7.57;5.43;;;231.10;2252.80;;;;;;5028496;28;20044;-61
2023/11/22 03:28:44;;;;;;;8.70;7.40;;;231.20;2252.80;;;;;;5047227;28;20047;-62
2023/11/22 03:31:10;;;;;;;8.40;5.72;;;231.20;2252.80;;;;;;5046579;28;20041;-63
2023/11/22 03:33:36;;;;;;;7.50;5.75;;;231.10;2252.80;;;;;;5046932;28;20029;-62
2023/11/22 03:36:03;;;;;;;10.68;9.38;;;231.10;2252.80;;;;;;5047168;28;20036;-62
2023/11/22 03:38:29;;;;;;;6.28;5.68;;;231.10;1996.80;;;;;;5047187;28;20387;-64
2023/11/22 03:40:54;;;;;;;8.05;6.13;;;231.20;2252.80;;;;;;5046951;28;20029;-62
2023/11/22 03:43:20;;;;;;;8.30;5.65;;;231.30;2252.80;;;;;;5046464;28;20095;-62
2023/11/22 03:45:46;;;;;;;7.50;6.13;;;231.20;2252.80;;;;;;5046758;28;20040;-63
2023/11/22 03:48:12;;;;;;;7.35;5.55;;;231.30;2252.80;;;;;;5046923;28;20021;-63
2023/11/22 03:50:37;;;;;;;6.10;5.38;;;231.30;2252.80;;;;;;5046778;28;20037;-62
2023/11/22 03:53:03;;;;;;;10.07;9.13;;;231.20;2252.80;;;;;;5046924;28;20013;-64
2023/11/22 03:55:29;;;;;;;7.28;6.57;;;231.10;2252.80;;;;;;5046725;28;20029;-64
2023/11/22 03:57:55;;;;;;;10.90;6.38;;;231.20;2252.80;;;;;;5046630;28;20033;-61
2023/11/22 04:00:20;;;;;;;7.30;6.20;;;231.30;2252.80;;;;;;5050247;28;20030;-64
2023/11/22 04:02:46;;;;;;;12.10;5.78;;;231.30;2252.80;;;;;;5050070;28;20035;-64
2023/11/22 04:05:12;;;;;;;7.97;5.78;;;256.00;2252.80;;;;;;5050395;28;20029;-62
2023/11/22 04:07:39;;;;;;;8.35;6.40;;;256.00;2252.80;;;;;;5050137;28;20082;-63
2023/11/22 04:10:06;;;;;;;6.85;6.05;;;256.00;2252.80;;;;;;5005582;28;1260282;-62
2023/11/22 04:12:32;;;;;;;8.90;6.60;;;231.30;2252.80;;;;;;5051511;28;20547;-61
2023/11/22 04:14:58;;;;;;;7.32;5.93;;;231.30;2252.80;;;;;;5051409;28;20037;-61
2023/11/22 04:17:23;;;;;;;7.47;6.05;;;231.30;2252.80;;;;;;5051535;28;20040;-60
2023/11/22 04:19:49;;;;;;;7.35;4.82;;;231.30;2252.80;;;;;;5051462;28;20028;-62
2023/11/22 04:22:15;;;;;;;6.85;5.65;;;231.30;2252.80;;;;;;5056014;28;20773;-63
2023/11/22 04:24:40;;;;;;;7.22;6.05;;;231.30;2252.80;;;;;;5070954;28;20032;-62
2023/11/22 04:27:07;;;;;;;8.48;6.13;;;231.20;2252.80;;;;;;5071229;28;20390;-61
2023/11/22 04:29:32;;;;;;;8.30;5.88;;;231.20;2252.80;;;;;;5071365;28;20024;-61
2023/11/22 04:31:58;;;;;;;9.07;6.95;;;231.20;2252.80;;;;;;5071009;28;20115;-61
2023/11/22 04:34:24;;;;;;;7.35;5.05;;;231.00;2252.80;;;;;;5071189;28;20028;-61
2023/11/22 04:36:49;;;;;;;9.18;5.50;;;231.00;2252.80;;;;;;5070469;28;20025;-62
2023/11/22 04:39:15;;;;;;;8.95;7.93;;;231.00;2252.80;;;;;;5052856;28;20160;-60
2023/11/22 04:41:41;;;;;;;26.75;24.25;;;231.10;2048.00;;;;;;5070976;28;20047;-61
2023/11/22 04:44:08;;;;;;;12.30;11.20;;;231.20;2252.80;;;;;;5070832;28;20462;-63
2023/11/22 04:46:34;;;;;;;7.35;5.85;;;231.20;2252.80;;;;;;5070865;28;20033;-61
2023/11/22 04:48:59;;;;;;;7.57;5.75;;;231.10;2252.80;;;;;;5052199;28;20039;-61
2023/11/22 04:51:29;;;;;;;9.13;6.45;;;231.10;2252.80;;;;;;5070822;28;20071;-63
2023/11/22 04:53:54;;;;;;;11.63;6.35;;;231.10;2252.80;;;;;;5070761;28;20099;-62
2023/11/22 04:56:20;;;;;;;7.53;5.65;;;231.10;2252.80;;;;;;5070657;28;20135;-63
2023/11/22 04:58:46;;;;;;;7.72;5.28;;;231.20;2252.80;;;;;;5070461;28;20095;-61
2023/11/22 05:01:12;;;;;;;8.10;7.05;;;231.20;2252.80;;;;;;5070845;28;20028;-61
2023/11/22 05:03:37;;;;;;;8.15;5.80;;;231.20;2252.80;;;;;;5069727;28;20024;-62
2023/11/22 05:06:04;;;;;;;10.73;9.15;;;231.10;2252.80;;;;;;5070938;28;20107;-63
2023/11/22 05:08:30;;;;;;;63.97;58.40;;;231.20;2252.80;;;;;;5070282;28;20466;-61
2023/11/22 05:10:56;;;;;;;9.00;7.65;;;231.30;2252.80;;;;;;5069773;28;20044;-63
2023/11/22 05:13:22;;;;;;;7.40;5.72;;;231.20;2252.80;;;;;;5070515;28;20024;-60
2023/11/22 05:15:47;;;;;;;6.15;4.82;;;231.20;2252.80;;;;;;5070013;28;20389;-61
2023/11/22 05:18:13;;;;;;;9.60;6.85;;;231.10;2073.60;;;;;;5070721;28;20469;-61
2023/11/22 05:20:39;;;;;;;7.28;5.53;;;231.00;2176.00;;;;;;5070202;28;20037;-63
2023/11/22 05:23:04;;;;;;;9.50;6.68;;;231.00;2252.80;;;;;;5070410;28;20024;-60
2023/11/22 05:25:30;;;;;;;8.65;6.80;;;231.10;2252.80;;;;;;5070093;28;20651;-61
2023/11/22 05:27:56;;;;;;;10.20;6.45;;;231.20;1971.20;;;;;;5069579;28;20031;-61
2023/11/22 05:30:22;;;;;;;7.25;6.45;;;231.20;2252.80;;;;;;5067693;28;20020;-62
2023/11/22 05:32:49;;;;;;;8.95;6.72;;;231.10;2252.80;;;;;;5069077;28;20036;-62
2023/11/22 05:35:15;;;;;;;8.63;6.68;;;231.00;2252.80;;;;;;5070020;28;20409;-60
2023/11/22 05:37:41;;;;;;;10.20;7.15;;;231.00;2252.80;;;;;;5069301;28;20032;-62
2023/11/22 05:40:09;;;;;;;9.13;7.35;;;231.00;2252.80;;;;;;5069205;28;20103;-61
2023/11/22 05:42:35;;;;;;;9.10;6.35;;;231.00;2252.80;;;;;;5056706;28;20033;-59
2023/11/22 05:45:03;;;;;;;9.27;6.70;;;231.00;2252.80;;;;;;5049872;28;20449;-61
2023/11/22 05:47:29;;;;;;;8.07;6.22;;;231.00;2252.80;;;;;;5049709;28;20518;-62
2023/11/22 05:49:54;;;;;;;7.55;6.50;;;231.10;2252.80;;;;;;5049671;28;20029;-61
2023/11/22 05:52:22;;;;;;;9.63;6.60;;;231.00;2252.80;;;;;;5049579;28;20040;-61
2023/11/22 05:54:47;;;;;;;9.32;6.32;;;231.10;2252.80;;;;;;5049157;28;20631;-62
2023/11/22 05:57:13;;;;;;;85.88;77.30;;;231.10;2252.80;;;;;;5049585;28;20029;-62
2023/11/22 05:59:39;;;;;;;14.48;10.85;;;231.10;2252.80;;;;;;5050223;28;20021;-60
2023/11/22 06:02:04;;;;;;;12.50;11.20;;;231.20;2252.80;;;;;;5048721;28;20063;-64
2023/11/22 06:04:30;;;;;;;36.50;32.65;;;231.20;2073.60;;;;;;5049389;28;20021;-63
2023/11/22 06:06:56;;;;;;;12.90;10.13;;;231.20;2252.80;;;;;;5049293;28;20032;-61
2023/11/22 06:09:23;;;;;;;11.35;9.45;;;231.20;2252.80;;;;;;5058706;28;20176;-61
2023/11/22 06:11:48;;;;;;;16.17;11.20;;;231.10;2073.60;;;;;;5051122;28;20070;-60
2023/11/22 06:14:14;;;;;;;13.82;12.52;;;231.10;2252.80;;;;;;5069068;28;20020;-61
2023/11/22 06:16:40;;;;;;;14.18;12.65;;;231.00;2252.80;;;;;;5068931;28;20032;-60
2023/11/22 06:19:07;;;;;;;14.05;9.85;;;231.10;2252.80;;;;;;5069282;28;20429;-62
2023/11/22 06:21:33;;;;;;;14.73;12.95;;;231.00;2252.80;;;;;;5049450;28;20029;-61
2023/11/22 06:23:59;;;;;;;12.00;10.88;;;231.10;2252.80;;;;;;5049161;28;20104;-62
2023/11/22 06:26:26;;;;;;;14.35;12.93;;;231.10;2252.80;;;;;;5049207;28;20175;-60
2023/11/22 06:28:52;;;;;;;22.38;20.23;;;231.10;2252.80;;;;;;5048778;28;20056;-60
2023/11/22 06:31:18;;;;;;;11.25;10.07;;;231.20;2252.80;;;;;;5048824;28;20037;-60
2023/11/22 06:33:44;;;;;;;11.60;9.95;;;231.20;2252.80;;;;;;5049196;28;20465;-60
2023/11/22 06:36:11;;;;;;;16.38;14.77;;;231.20;2099.20;;;;;;5050885;28;20356;-60
2023/11/22 06:38:37;;;;;;;12.45;11.18;;;231.30;2252.80;;;;;;5050535;28;20025;-60
2023/11/22 06:41:03;;;;;;;52.05;36.40;;;231.30;2227.20;;;;;;5050180;28;20369;-60
2023/11/22 06:43:29;;;;;;;436.08;313.27;;;231.30;2252.80;;;;;;5050170;28;20028;-60
2023/11/22 06:45:55;;;;;;;264.60;191.32;;;231.20;1868.80;;;;;;5050622;28;20029;-60
2023/11/22 06:48:21;;;;;;;21.70;18.75;;;231.30;2252.80;;;;;;5050172;28;20025;-60
2023/11/22 06:50:46;;;;;;;15.18;11.15;;;256.00;2252.80;;;;;;5050061;28;20032;-60
2023/11/22 06:53:12;;;;;;;15.80;11.50;;;256.00;2252.80;;;;;;5050339;28;20043;-59
2023/11/22 06:55:38;;;;;;;18.35;16.48;;;231.30;2252.80;;;;;;5049839;28;20092;-60
2023/11/22 06:58:06;;;;;;;12.68;11.40;;;256.00;2252.80;;;;;;5050198;28;20128;-59
2023/11/22 07:00:32;;;;;;;37.08;29.58;;;256.10;2252.80;;;;;;5050052;28;20079;-60
2023/11/22 07:02:58;;;;;;;15.70;13.07;;;256.10;2252.80;;;;;;5049841;28;20040;-59
2023/11/22 07:05:24;;;;;;;11.75;10.48;;;256.10;2252.80;;;;;;5049843;28;20025;-59
2023/11/22 07:07:49;;;;;;;13.75;12.35;;;256.00;2252.80;;;;;;5049834;28;20500;-60
2023/11/22 07:10:15;;;;;;;10.25;9.25;;;256.00;2252.80;;;;;;5049753;28;20067;-59
2023/11/22 07:12:43;;;;;;;10.10;7.57;;;256.10;2252.80;;;;;;5049813;28;20036;-63
2023/11/22 07:15:09;;;;;;;10.85;8.05;;;256.10;2252.80;;;;;;5049739;28;20386;-59
2023/11/22 07:17:36;;;;;;;10.95;8.60;;;256.10;2252.80;;;;;;5049831;28;20033;-60
2023/11/22 07:20:02;;;;;;;9.43;6.90;;;256.10;2252.80;;;;;;5049701;28;20104;-60
2023/11/22 07:22:30;;;;;;;9.90;7.43;;;256.30;2252.80;;;;;;5049547;28;20502;-59
2023/11/22 07:24:59;;;;;;;11.23;8.88;;;256.30;2252.80;;;;;;5049657;28;20059;-59
2023/11/22 07:27:25;;;;;;;17.33;12.23;;;256.30;2252.80;;;;;;5049872;28;20021;-59
2023/11/22 07:29:52;;;;;;;14.60;10.77;;;256.20;2252.80;;;;;;5049712;28;20039;-61
2023/11/22 07:32:20;;;;;;;19.85;15.52;;;256.40;2252.80;;;;;;5049395;28;20040;-59
2023/11/22 07:34:46;;;;;;;19.67;13.32;;;256.50;2252.80;;;;;;5049480;28;20021;-61
2023/11/22 07:37:13;;;;;;;17.85;14.45;;;256.40;2252.80;;;;;;5049682;28;20458;-59
2023/11/22 07:39:39;;;;;;;16.42;12.38;;;256.30;2252.80;;;;;;5049176;28;20025;-59
2023/11/22 07:42:07;;;;;;;18.40;13.90;;;256.20;2252.80;;;;;;5049653;28;20059;-59
2023/11/22 07:44:35;;;;;;;16.05;12.93;;;256.30;2252.80;;;;;;5049509;28;20100;-64
2023/11/22 07:47:02;;;;;;;21.00;16.38;;;256.50;2252.80;;;;;;5049473;28;20039;-64
2023/11/22 07:49:28;;;;;;;21.70;15.75;;;256.50;2252.80;;;;;;5049218;28;20021;-60
2023/11/22 07:51:55;;;;;;;22.88;16.52;;;256.40;2252.80;;;;;;5049329;28;20036;-59
2023/11/22 07:54:22;;;;;;;28.13;19.15;;;256.40;2252.80;;;;;;5049333;28;20090;-60
2023/11/22 07:56:49;;;;;;;27.33;20.23;;;256.50;2252.80;;;;;;5049372;28;20029;-59
2023/11/22 07:59:15;;;;;;;39.88;28.25;;;256.50;2252.80;;;;;;5049405;28;20017;-60
2023/11/22 08:01:44;;;;;;;61.38;44.65;;;256.70;2252.80;;;;;;5049463;28;20035;-60
2023/11/22 08:04:09;;;;;;;52.15;38.75;;;256.60;2252.80;;;;;;5051309;28;20296;-63
2023/11/22 08:06:35;;;;;;;47.00;35.60;;;256.50;2252.80;;;;;;5057706;28;20499;-59
2023/11/22 08:09:01;;;;;;;52.20;38.50;;;256.60;2252.80;;;;;;5066171;28;20048;-64
2023/11/22 08:11:28;;;;;;;75.40;58.10;;;256.60;2252.80;;;;;;5068734;28;20064;-63
2023/11/22 08:13:58;;;;;;;78.90;53.25;;;256.50;2252.80;;;;;;5069201;28;20039;-64
2023/11/22 08:16:25;;;;;;;75.13;52.28;;;256.70;2252.80;;;;;;5069045;28;20028;-64
2023/11/22 08:18:51;;;;;;;80.43;61.58;;;256.60;2252.80;;;;;;5069311;28;20071;-64
2023/11/22 08:21:18;;;;;;;51.90;38.53;;;256.60;2252.80;;;;;;5068983;28;20491;-65
2023/11/22 08:23:46;;;;;;;56.38;39.13;;;256.30;2252.80;;;;;;5069279;28;20028;-64
2023/11/22 08:26:12;;;;;;;43.28;31.17;;;256.30;2252.80;;;;;;5069000;28;20540;-64
2023/11/22 08:28:39;;;;;;;41.05;29.85;;;256.30;2252.80;;;;;;5068726;28;20029;-63
2023/11/22 08:31:09;;;;;;;56.42;42.70;;;256.30;2252.80;;;;;;5069032;28;20031;-64
2023/11/22 08:33:38;;;;;;;62.67;48.20;;;231.10;2252.80;;;;;;5068955;28;20471;-64
2023/11/22 08:36:08;;;;;;;45.75;36.97;;;256.30;2252.80;;;;;;5069290;28;20024;-64
2023/11/22 08:38:40;;;;;;;69.78;57.17;;;256.20;2252.80;;;;;;5069029;28;20025;-64
2023/11/22 08:41:07;;;;;;;53.95;40.00;;;256.10;2252.80;;;;;;5068737;28;20025;-64
2023/11/22 08:43:33;;;;;;;53.50;40.60;;;256.30;2252.80;;;;;;5068867;28;20512;-64
2023/11/22 08:46:00;;;;;;;58.80;43.70;;;256.40;2252.80;;;;;;5071854;28;20028;-64
2023/11/22 08:48:26;;;;;;;95.35;72.10;;;256.50;2252.80;;;;;;5072285;28;20111;-66
2023/11/22 08:50:53;;;;;;;76.18;53.65;;;256.60;2252.80;;;;;;5072408;28;20119;-64
2023/11/22 08:53:20;;;;;;;53.88;40.50;;;256.60;2252.80;;;;;;5064614;28;20055;-64
2023/11/22 08:55:47;;;;;;;85.85;63.60;;;256.60;2252.80;;;;;;5072061;28;20062;-65
2023/11/22 08:58:13;;;;;;;47.63;36.40;;;256.70;2252.80;;;;;;5061270;28;20016;-64
2023/11/22 09:00:41;;;;;;;63.28;45.97;;;256.40;2252.80;;;;;;5061627;28;20150;-64
2023/11/22 09:03:12;;;;;;;50.35;38.67;;;256.50;2252.80;;;;;;5068431;28;20025;-64
2023/11/22 09:05:42;;;;;;;55.35;40.00;;;256.40;2252.80;;;;;;5072287;28;20052;-64
2023/11/22 09:08:13;;;;;;;55.30;42.10;;;256.40;2252.80;;;;;;5072071;28;20366;-64
2023/11/22 09:10:39;;;;;;;69.22;51.13;;;256.50;2252.80;;;;;;5051470;28;20053;-65
2023/11/22 09:13:05;;;;;;;62.88;46.30;;;256.50;2252.80;;;;;;5052147;28;20059;-64
2023/11/22 09:15:33;;;;;;;52.10;38.33;;;256.50;2252.80;;;;;;5069707;28;20039;-64
2023/11/22 09:17:59;;;;;;;67.72;49.30;;;256.40;2252.80;;;;;;5071829;28;20025;-64
2023/11/22 09:20:25;;;;;;;65.80;43.08;;;256.30;2252.80;;;;;;5072022;28;20025;-64
2023/11/22 09:22:52;;;;;;;57.15;40.35;;;256.40;2252.80;;;;;;5072018;28;20422;-65
2023/11/22 09:25:24;;;;;;;51.47;33.92;;;256.50;2252.80;;;;;;5071696;28;20033;-64
2023/11/22 09:27:51;;;;;;;50.70;36.90;;;256.30;2252.80;;;;;;5071628;28;20017;-64
2023/11/22 09:30:32;;;;;;;50.20;34.15;;;256.30;2252.80;;;;;;5071331;28;20028;-66
2023/11/22 09:33:14;;;;;;;54.50;37.75;;;256.30;2252.80;;;;;;5071525;28;20463;-65
2023/11/22 09:35:41;;;;;;;42.85;30.20;;;256.40;2252.80;;;;;;5071336;28;20056;-65
2023/11/22 09:38:11;;;;;;;50.10;35.25;;;256.70;2252.80;;;;;;5071409;28;20041;-64
2023/11/22 09:40:39;;;;;;;50.92;36.72;;;256.50;2252.80;;;;;;5071162;28;20110;-65
2023/11/22 09:43:05;;;;;;;59.25;41.90;;;256.60;2252.80;;;;;;5068631;28;20060;-64
2023/11/22 09:45:32;;;;;;;142.18;126.88;;;256.50;2252.80;;;;;;5059308;28;20029;-63
2023/11/22 09:47:58;;;;;;;61.50;42.92;;;256.50;2252.80;;;;;;5061473;28;20017;-64
2023/11/22 09:50:26;;;;;;;68.75;46.90;;;256.50;2252.80;;;;;;5059832;28;20036;-64
2023/11/22 09:52:55;;;;;;;45.60;31.35;;;256.50;2252.80;;;;;;5065600;28;20077;-64
2023/11/22 09:55:25;;;;;;;42.97;31.10;;;256.30;2252.80;;;;;;5070748;28;20029;-64
2023/11/22 09:57:52;;;;;;;54.03;40.45;;;256.10;2252.80;;;;;;5070509;28;20029;-64
2023/11/22 10:00:21;;;;;;;58.50;42.03;;;256.20;2252.80;;;;;;5071195;28;20020;-64
2023/11/22 10:02:47;;;;;;;48.97;33.03;;;256.20;2252.80;;;;;;5071193;28;20031;-66
2023/11/22 10:05:13;;;;;;;37.85;27.23;;;256.40;2252.80;;;;;;5071119;28;20024;-64
2023/11/22 10:07:39;;;;;;;50.17;38.42;;;256.20;2252.80;;;;;;5070941;28;20032;-64
2023/11/22 10:10:06;;;;;;;45.88;31.88;;;256.00;2252.80;;;;;;5070809;28;20033;-64
2023/11/22 10:12:36;;;;;;;42.55;27.48;;;256.30;2252.80;;;;;;5070880;28;20090;-64
2023/11/22 10:15:18;;;;;;;44.65;30.33;;;256.30;2252.80;;;;;;5071142;28;20025;-64
2023/11/22 10:17:58;;;;;;;93.80;82.07;;;256.30;2252.80;;;;;;5070993;28;20074;-64
2023/11/22 10:20:39;;;;;;;57.53;38.70;;;256.20;2252.80;;;;;;5070651;28;20039;-64
2023/11/22 10:23:09;;;;;;;82.38;54.50;;;256.20;2252.80;;;;;;5070673;28;20024;-63
2023/11/22 10:25:35;;;;;;;34.88;23.60;;;256.20;2252.80;;;;;;5070623;28;20021;-64
2023/11/22 10:28:01;;;;;;;28.63;19.65;;;256.20;2252.80;;;;;;5070600;28;20028;-63
2023/11/22 10:30:28;;;;;;;25.02;18.80;;;256.20;2252.80;;;;;;5070297;28;20016;-64
2023/11/22 10:32:55;;;;;;;29.08;20.30;;;256.30;2252.80;;;;;;5070719;28;20035;-64
2023/11/22 10:35:22;;;;;;;26.60;17.02;;;256.20;2252.80;;;;;;5070391;28;20028;-63
2023/11/22 10:37:48;;;;;;;26.27;17.75;;;256.20;2252.80;;;;;;5070331;28;20024;-64
2023/11/22 10:40:15;;;;;;;28.00;18.88;;;256.20;2252.80;;;;;;5070384;28;20115;-65
2023/11/22 10:42:43;;;;;;;24.88;17.25;;;256.30;2252.80;;;;;;5070183;28;20111;-64
2023/11/22 10:45:09;;;;;;;36.00;24.73;;;256.40;2252.80;;;;;;5070303;28;20023;-64
2023/11/22 10:47:41;;;;;;;24.77;17.75;;;256.30;2252.80;;;;;;5070357;28;20021;-64
2023/11/22 10:50:08;;;;;;;35.00;31.25;;;256.40;2252.80;;;;;;5070025;28;20082;-66
2023/11/22 10:52:38;;;;;;;38.00;27.50;;;256.50;2252.80;;;;;;5070248;28;20033;-64
2023/11/22 10:55:06;;;;;;;29.38;21.75;;;256.50;2252.80;;;;;;5070385;28;20081;-64
2023/11/22 10:57:38;;;;;;;29.33;18.45;;;256.40;2252.80;;;;;;5070501;28;20040;-64
2023/11/22 11:00:07;;;;;;;22.45;17.52;;;256.50;2252.80;;;;;;5070311;28;20021;-65
2023/11/22 11:02:41;;;;;;;22.80;15.85;;;256.50;2252.80;;;;;;5070501;28;20021;-64
2023/11/22 11:05:28;;;;;;;22.73;16.02;;;256.40;2252.80;;;;;;5070480;28;20105;-64
2023/11/22 11:08:12;;;;;;;29.30;19.00;;;256.40;2252.80;;;;;;5069796;28;20025;-64
2023/11/22 11:10:42;;;;;;;23.60;16.90;;;256.30;2252.80;;;;;;5069595;28;20044;-64
2023/11/22 11:13:11;;;;;;;25.98;17.98;;;256.40;2252.80;;;;;;5069758;28;20115;-65
2023/11/22 11:15:40;;;;;;;64.03;48.35;;;256.40;2252.80;;;;;;5069879;28;20055;-65
2023/11/22 11:18:07;;;;;;;31.73;20.65;;;256.40;2252.80;;;;;;5069767;28;20545;-64
2023/11/22 11:20:47;;;;;;;37.17;27.35;;;256.50;2252.80;;;;;;5069844;28;20062;-63
2023/11/22 11:23:14;;;;;;;41.50;31.85;;;256.40;2252.80;;;;;;5069938;28;20029;-64
2023/11/22 11:25:41;;;;;;;29.88;16.17;;;256.40;2252.80;;;;;;5051563;28;20378;-65
2023/11/22 11:28:11;;;;;;;27.20;21.15;;;256.30;2252.80;;;;;;5069560;28;20039;-64
2023/11/22 11:30:48;;;;;;;27.15;22.05;;;256.20;2252.80;;;;;;5069427;28;20031;-64
2023/11/22 11:33:17;;;;;;;24.80;20.77;;;256.20;2252.80;;;;;;5069917;28;20032;-64
2023/11/22 11:35:49;;;;;;;20.63;15.82;;;256.00;2252.80;;;;;;5069665;28;20030;-64
2023/11/22 11:38:18;;;;;;;18.95;14.50;;;256.20;2252.80;;;;;;5069761;28;20031;-64
2023/11/22 11:40:49;;;;;;;22.08;14.60;;;256.30;2252.80;;;;;;5069486;28;20510;-64
2023/11/22 11:43:14;;;;;;;21.40;16.95;;;256.40;2252.80;;;;;;5069671;28;20437;-64
2023/11/22 11:45:46;;;;;;;27.33;21.27;;;256.50;2252.80;;;;;;5069299;28;20150;-63
2023/11/22 11:48:15;;;;;;;23.38;20.88;;;256.40;2252.80;;;;;;5069329;28;20036;-64
2023/11/22 11:50:42;;;;;;;27.05;24.13;;;256.30;2252.80;;;;;;5069338;28;20601;-64
2023/11/22 11:53:08;;;;;;;33.95;25.77;;;256.30;2252.80;;;;;;5069200;28;20032;-64
2023/11/22 11:55:34;;;;;;;19.67;16.15;;;256.40;2252.80;;;;;;5069431;28;20021;-64
2023/11/22 11:58:09;;;;;;;20.10;15.23;;;256.30;2252.80;;;;;;5069132;28;20479;-63
2023/11/22 12:00:40;;;;;;;17.85;12.70;;;256.30;2252.80;;;;;;5069515;28;20640;-64
2023/11/22 12:03:12;;;;;;;19.17;13.98;;;256.30;2252.80;;;;;;5069241;28;20033;-65
2023/11/22 12:05:39;;;;;;;17.23;12.25;;;256.30;2252.80;;;;;;5069034;28;20454;-64